Minot Air Force Base
KMIB : rendu visible

Aérodrome :











RETROUVEZ-NOUS SUR...

 
LOGIN :

S'inscrire | Disclaimer

   EN    FR    IT 

 









Légende :    VFR   VFR Marginal   IFR   IFR Intensif   IFR Très Intensif
Visi : 
Plafond : 
>= 8 km
>= 3000ft
5 à 8 km
1000 à 3000 ft
1500m à 5 km
500 à 1000 ft
800 à 1500m
200 à 500 ft
< 800m
< 200 ft
Symboles :   Orages  Brouillard  Fortes neiges  Fortes précipitations  Vent > 20 kt






- Altitude de l'aérodrome : 1667 ft


KMIB - Minot Air Force Base

DERNIER METAR :
  • 310556Z AUTO 16007KT 10SM CLR 09/03 A3017 RMK AO2 SLP225 T00880028 10204 20088 402090034 58002 CHINO RWY12 $

METARs EXPIRÉS :
  • 310456Z AUTO 17007KT 10SM CLR 10/03 A3018 RMK AO2 SLP228 T01020025 CHINO RWY12 $
  • 310356Z AUTO 16007KT 10SM CLR 11/02 A3017 RMK AO2 SLP225 T01110021 CHINO RWY12 $
  • 310256Z AUTO 16006KT 10SM CLR 13/02 A3018 RMK AO2 SLP228 T01270023 55001 CHINO RWY12 $

Prévision TAF périmée.
FIR KZMP / Amérique du Nord



MET'MAP, la Météo Aéronautique d'un coup d'oeil ! - Copyright ORBIFLY Décembre 2007 - Disclaimer

ORBIFLY MET'MAP TEAM :

Programmation & Développement : Alexandra Zaïnal
Sur une idée originale de : Baudouin d'Aumeries
Assistance à la programmation : Marc-Olivier Méhu
Soutien technique & logistique : Manuel Goepfert

Contact : metmap@orbifly.com




SOURCES & CREDITS :

   NOAA       Earth
Advisory